createdAt,value
2018-02-06T00:00:44.268Z,-0.50
2018-02-06T00:03:11.648Z,-0.50
2018-02-06T00:05:39.069Z,-0.60
2018-02-06T00:08:06.368Z,-0.60
2018-02-06T00:10:34.408Z,-0.60
2018-02-06T00:13:02.068Z,-0.60
2018-02-06T00:15:29.570Z,-0.60
2018-02-06T00:17:58.528Z,-0.60
2018-02-06T00:20:25.969Z,-0.60
2018-02-06T00:22:53.608Z,-0.60
2018-02-06T00:25:20.828Z,-0.60
2018-02-06T00:27:48.308Z,-0.60
2018-02-06T00:30:15.908Z,-0.60
2018-02-06T00:32:43.168Z,-0.60
2018-02-06T00:35:10.588Z,-0.60
2018-02-06T00:37:37.876Z,-0.70
2018-02-06T00:40:05.468Z,-0.70
2018-02-06T00:42:32.808Z,-0.70
2018-02-06T00:45:00.128Z,-0.70
2018-02-06T00:47:27.508Z,-0.70
2018-02-06T00:49:54.849Z,-0.80
2018-02-06T00:52:22.508Z,-0.80
2018-02-06T00:54:49.889Z,-0.80
2018-02-06T00:57:19.011Z,-0.70
2018-02-06T00:59:46.529Z,-0.70
2018-02-06T01:02:13.968Z,-0.80
2018-02-06T01:04:41.450Z,-0.80
2018-02-06T01:07:08.768Z,-0.70
2018-02-06T01:09:36.848Z,-0.70
2018-02-06T01:12:04.146Z,-0.70
2018-02-06T01:14:31.648Z,-0.70
2018-02-06T01:16:59.727Z,-0.80
2018-02-06T01:19:26.966Z,-0.80
2018-02-06T01:21:54.346Z,-0.70
2018-02-06T01:24:21.726Z,-0.80
2018-02-06T01:26:49.146Z,-0.80
2018-02-06T01:29:17.167Z,-0.80
2018-02-06T01:31:44.533Z,-0.80
2018-02-06T01:34:13.008Z,-0.80
2018-02-06T01:36:40.746Z,-0.80
2018-02-06T01:39:08.118Z,-0.80
2018-02-06T01:41:35.506Z,-0.80
2018-02-06T01:44:02.888Z,-0.90
2018-02-06T01:46:30.287Z,-0.90
2018-02-06T01:48:57.886Z,-1.00
2018-02-06T01:51:25.406Z,-1.00
2018-02-06T01:53:52.886Z,-1.00
2018-02-06T01:56:20.166Z,-1.00
2018-02-06T01:58:47.645Z,-1.00
2018-02-06T02:01:15.812Z,-1.00
2018-02-06T02:03:43.992Z,-1.00
2018-02-06T02:06:11.432Z,-1.00
2018-02-06T02:08:39.352Z,-1.00
2018-02-06T02:11:06.732Z,-1.00
2018-02-06T02:13:34.953Z,-1.00
2018-02-06T02:16:02.212Z,-1.00
2018-02-06T02:18:29.552Z,-1.00
2018-02-06T02:20:57.052Z,-1.00
2018-02-06T02:23:24.378Z,-1.00
2018-02-06T02:25:51.852Z,-1.00
2018-02-06T02:28:19.233Z,-1.00
2018-02-06T02:30:46.894Z,-1.10
2018-02-06T02:33:14.292Z,-1.10
2018-02-06T02:35:41.729Z,-1.10
2018-02-06T02:38:09.569Z,-1.10
2018-02-06T02:40:37.215Z,-1.10
2018-02-06T04:38:34.950Z,-1.30
2018-02-06T04:41:02.247Z,-1.30
2018-02-06T04:43:30.406Z,-1.40
2018-02-06T04:45:58.046Z,-1.40
2018-02-06T04:48:25.469Z,-1.30
2018-02-06T04:50:53.012Z,-1.30
2018-02-06T04:53:20.489Z,-1.30
2018-02-06T04:55:47.780Z,-1.30
2018-02-06T04:58:15.146Z,-1.30
2018-02-06T05:00:42.572Z,-1.30
2018-02-06T05:03:09.969Z,-1.30
2018-02-06T05:05:38.050Z,-1.30
2018-02-06T05:08:05.709Z,-1.30
2018-02-06T05:10:33.450Z,-1.30
2018-02-06T05:13:01.590Z,-1.30
2018-02-06T05:15:29.011Z,-1.30
2018-02-06T05:17:56.471Z,-1.30
2018-02-06T05:20:23.890Z,-1.30
2018-02-06T05:22:51.612Z,-1.30
2018-02-06T05:25:18.910Z,-1.30
2018-02-06T05:27:46.330Z,-1.30
2018-02-06T05:30:14.075Z,-1.40
2018-02-06T05:32:41.510Z,-1.30
2018-02-06T05:35:09.090Z,-1.30
2018-02-06T05:37:36.870Z,-1.30
2018-02-06T05:40:04.829Z,-1.40
2018-02-06T05:42:32.891Z,-1.40
2018-02-06T05:45:00.451Z,-1.40
2018-02-06T05:47:28.170Z,-1.30
2018-02-06T05:49:55.551Z,-1.30
2018-02-06T05:52:23.270Z,-1.30
2018-02-06T05:54:50.530Z,-1.30
2018-02-06T05:57:17.930Z,-1.40
2018-02-06T05:59:45.370Z,-1.30
2018-02-06T06:02:13.650Z,-1.30
2018-02-06T06:04:40.970Z,-1.30
2018-02-06T06:07:08.530Z,-1.30
2018-02-06T06:09:35.970Z,-1.30
2018-02-06T06:12:03.490Z,-1.30
2018-02-06T06:14:30.931Z,-1.30
2018-02-06T06:16:58.218Z,-1.30
2018-02-06T06:19:25.630Z,-1.30
2018-02-06T06:21:53.831Z,-1.20
2018-02-06T06:24:21.710Z,-1.30
2018-02-06T06:26:49.090Z,-1.30
2018-02-06T06:29:17.371Z,-1.30
2018-02-06T06:31:44.829Z,-1.30
2018-02-06T06:34:12.270Z,-1.30
2018-02-06T06:36:39.650Z,-1.30
2018-02-06T06:39:07.010Z,-1.30
2018-02-06T06:41:34.524Z,-1.30
2018-02-06T06:44:01.893Z,-1.30
2018-02-06T06:46:29.410Z,-1.30
2018-02-06T06:48:57.250Z,-1.30
2018-02-06T06:51:24.630Z,-1.30
2018-02-06T06:53:52.321Z,-1.30
2018-02-06T06:56:23.347Z,-1.30
2018-02-06T06:58:51.492Z,-1.20
2018-02-06T07:01:20.310Z,-1.20
2018-02-06T07:03:47.767Z,-1.20
2018-02-06T07:06:15.127Z,-1.20
2018-02-06T07:08:42.707Z,-1.20
2018-02-06T07:11:10.368Z,-1.20
2018-02-06T07:13:37.812Z,-1.20
2018-02-06T07:16:05.187Z,-1.20
2018-02-06T07:18:32.588Z,-1.20
2018-02-06T07:21:00.127Z,-1.20
2018-02-06T07:23:27.586Z,-1.10
2018-02-06T07:25:54.848Z,-1.10
2018-02-06T07:28:22.686Z,-1.10
2018-02-06T07:30:50.356Z,-1.10
2018-02-06T07:33:19.847Z,-1.10
2018-02-06T07:35:47.172Z,-1.10
2018-02-06T07:38:14.792Z,-1.10
2018-02-06T07:40:42.472Z,-1.10
2018-02-06T07:43:09.929Z,-1.20
2018-02-06T07:45:37.429Z,-1.10
2018-02-06T07:48:05.619Z,-1.10
2018-02-06T07:50:33.668Z,-1.00
2018-02-06T07:53:01.090Z,-1.00
2018-02-06T07:55:29.055Z,-1.00
2018-02-06T07:57:56.770Z,-1.00
2018-02-06T08:00:24.204Z,-0.90
2018-02-06T08:05:23.209Z,-0.90
2018-02-06T08:07:50.919Z,-0.90
2018-02-06T08:10:18.350Z,-0.90
2018-02-06T08:12:45.726Z,-0.80
2018-02-06T08:15:13.596Z,-0.80
2018-02-06T08:17:41.033Z,-0.80
2018-02-06T08:20:08.528Z,-0.80
2018-02-06T08:22:36.449Z,-0.80
2018-02-06T08:25:05.240Z,-0.70
2018-02-06T08:27:32.589Z,-0.70
2018-02-06T08:30:00.509Z,-0.60
2018-02-06T08:32:28.676Z,-0.60
2018-02-06T08:34:56.192Z,-0.60
2018-02-06T08:37:23.627Z,-0.60
2018-02-06T08:39:51.847Z,-0.50
2018-02-06T08:42:19.315Z,-0.60
2018-02-06T08:44:47.654Z,-0.60
2018-02-06T08:47:15.110Z,-0.50
2018-02-06T08:49:43.285Z,-0.50
2018-02-06T08:52:10.946Z,-0.50
2018-02-06T08:54:38.414Z,-0.40
2018-02-06T08:57:06.326Z,-0.30
2018-02-06T08:59:33.686Z,-0.30
2018-02-06T09:02:01.127Z,-0.30
2018-02-06T09:04:29.365Z,-0.40
2018-02-06T09:06:56.745Z,-0.40
2018-02-06T09:09:24.125Z,-0.40
2018-02-06T09:11:52.125Z,-0.40
2018-02-06T09:14:19.545Z,-0.50
2018-02-06T09:16:46.891Z,-0.40
2018-02-06T09:19:14.391Z,-0.40
2018-02-06T09:21:43.308Z,-0.40
2018-02-06T09:24:11.048Z,-0.30
2018-02-06T09:26:39.208Z,-0.20
2018-02-06T09:29:07.405Z,-0.20
2018-02-06T09:31:34.725Z,-0.20
2018-02-06T09:34:02.367Z,-0.10
2018-02-06T09:36:29.725Z,0.00
2018-02-06T09:38:57.085Z,0.00
2018-02-06T09:41:25.165Z,-0.20
2018-02-06T09:43:53.890Z,-0.20
2018-02-06T09:46:21.287Z,-0.20
2018-02-06T09:48:48.707Z,-0.10
2018-02-06T09:51:16.447Z,-0.10
2018-02-06T09:53:43.893Z,0.00
2018-02-06T09:56:11.255Z,0.00
2018-02-06T09:58:38.870Z,0.00
2018-02-06T10:01:06.287Z,0.10
2018-02-06T10:03:33.727Z,0.00
2018-02-06T10:06:01.467Z,0.10
2018-02-06T10:08:29.609Z,0.20
2018-02-06T10:10:56.869Z,0.20
2018-02-06T10:13:24.467Z,0.20
2018-02-06T10:15:52.125Z,0.20
2018-02-06T10:18:19.488Z,0.30
2018-02-06T10:20:46.988Z,0.40
2018-02-06T10:23:16.388Z,0.50
2018-02-06T10:25:44.370Z,0.60
2018-02-06T10:28:12.086Z,0.60
2018-02-06T10:30:39.452Z,0.70
2018-02-06T10:33:06.993Z,0.60
2018-02-06T10:35:34.689Z,0.50
2018-02-06T10:38:02.008Z,0.50
2018-02-06T10:40:29.308Z,0.50
2018-02-06T10:42:56.588Z,0.60
2018-02-06T10:45:23.923Z,0.70
2018-02-06T10:47:51.191Z,0.60
2018-02-06T10:50:19.230Z,0.60
2018-02-06T10:52:46.530Z,0.60
2018-02-06T10:55:13.801Z,0.60
2018-02-06T10:57:41.249Z,0.70
2018-02-06T11:00:08.940Z,0.70
2018-02-06T11:02:37.446Z,0.60
2018-02-06T11:05:04.656Z,0.60
2018-02-06T11:07:31.895Z,0.60
2018-02-06T11:09:59.236Z,0.60
2018-02-06T11:12:26.882Z,0.60
2018-02-06T11:14:54.171Z,0.60
2018-02-06T11:17:21.477Z,0.70
2018-02-06T11:19:48.770Z,0.70
2018-02-06T11:22:17.901Z,0.70
2018-02-06T11:24:46.129Z,0.80
2018-02-06T11:27:14.389Z,0.80
2018-02-06T11:29:42.906Z,0.80
2018-02-06T11:32:10.186Z,0.80
2018-02-06T11:34:37.449Z,0.90
2018-02-06T11:37:04.727Z,0.90
2018-02-06T11:39:32.067Z,0.90
2018-02-06T11:41:59.448Z,0.90
2018-02-06T11:44:27.229Z,0.90
2018-02-06T11:46:55.689Z,0.80
2018-02-06T11:49:23.128Z,0.80
2018-02-06T11:51:50.505Z,0.80
2018-02-06T11:54:17.763Z,0.80
2018-02-06T11:56:45.105Z,0.90
2018-02-06T11:59:12.475Z,0.90
2018-02-06T12:01:39.846Z,0.90
2018-02-06T12:04:07.370Z,0.90
2018-02-06T12:06:35.487Z,1.00
2018-02-06T12:09:03.547Z,1.00
2018-02-06T12:11:31.488Z,1.10
2018-02-06T12:13:58.866Z,1.20
2018-02-06T12:16:26.206Z,1.30
2018-02-06T12:18:53.567Z,1.30
2018-02-06T12:21:21.246Z,1.30
2018-02-06T12:23:48.987Z,1.20
2018-02-06T12:26:16.366Z,1.10
2018-02-06T12:28:44.805Z,1.20
2018-02-06T12:31:12.805Z,1.20
2018-02-06T12:33:40.446Z,1.30
2018-02-06T12:36:09.253Z,1.40
2018-02-06T12:38:36.970Z,1.40
2018-02-06T12:41:04.228Z,1.50
2018-02-06T12:43:31.566Z,1.50
2018-02-06T12:45:58.936Z,1.40
2018-02-06T12:48:28.344Z,1.30
2018-02-06T12:50:55.687Z,1.30
2018-02-06T12:53:22.967Z,1.40
2018-02-06T12:55:50.206Z,1.40
2018-02-06T12:58:17.607Z,1.50
2018-02-06T13:00:44.916Z,1.50
2018-02-06T13:03:12.975Z,1.60
2018-02-06T13:05:40.367Z,1.60
2018-02-06T13:08:07.631Z,1.60
2018-02-06T13:10:35.069Z,1.50
2018-02-06T13:13:02.366Z,1.40
2018-02-06T13:15:29.761Z,1.50
2018-02-06T13:17:57.165Z,1.60
2018-02-06T13:20:24.554Z,1.70
2018-02-06T13:22:52.147Z,1.80
2018-02-06T13:25:19.607Z,2.00
2018-02-06T13:27:47.187Z,2.20
2018-02-06T13:30:15.446Z,2.30
2018-02-06T13:32:42.867Z,2.20
2018-02-06T13:35:10.566Z,2.20
2018-02-06T13:37:38.007Z,2.10
2018-02-06T13:40:05.397Z,2.10
2018-02-06T13:42:32.902Z,2.00
2018-02-06T13:45:00.311Z,2.00
2018-02-06T13:47:27.767Z,2.00
2018-02-06T13:49:55.166Z,2.10
2018-02-06T13:52:22.450Z,2.10
2018-02-06T13:54:50.206Z,2.10
2018-02-06T13:57:17.510Z,2.10
2018-02-06T13:59:44.942Z,2.00
2018-02-06T14:02:12.408Z,1.90
2018-02-06T14:04:39.824Z,1.90
2018-02-06T14:07:07.307Z,1.80
2018-02-06T14:09:34.606Z,1.70
2018-02-06T14:12:02.854Z,1.50
2018-02-06T14:14:31.169Z,1.60
2018-02-06T14:16:59.217Z,1.60
2018-02-06T14:19:26.676Z,1.60
2018-02-06T14:21:54.534Z,1.70
2018-02-06T14:24:22.170Z,1.60
2018-02-06T14:26:49.692Z,1.60
2018-02-06T14:29:17.111Z,1.60
2018-02-06T14:31:44.794Z,1.60
2018-02-06T14:34:12.248Z,1.60
2018-02-06T14:36:39.670Z,1.60
2018-02-06T14:39:07.951Z,1.50
2018-02-06T14:41:35.992Z,1.50
2018-02-06T14:44:03.376Z,1.50
2018-02-06T14:46:30.750Z,1.50
2018-02-06T14:48:58.368Z,1.40
2018-02-06T14:51:25.788Z,1.40
2018-02-06T14:53:53.172Z,1.50
2018-02-06T14:56:20.529Z,1.40
2018-02-06T14:58:48.330Z,1.40
2018-02-06T15:01:15.968Z,1.40
2018-02-06T15:03:43.967Z,1.40
2018-02-06T15:06:11.410Z,1.30
2018-02-06T15:08:38.925Z,1.30
2018-02-06T15:11:06.268Z,1.20
2018-02-06T15:13:33.681Z,1.20
2018-02-06T15:16:01.789Z,1.10
2018-02-06T15:18:32.446Z,1.10
2018-02-06T15:20:59.853Z,1.10
2018-02-06T15:23:27.649Z,1.10
2018-02-06T15:25:55.115Z,1.10
2018-02-06T15:28:22.753Z,1.10
2018-02-06T15:30:51.960Z,1.00
2018-02-06T15:33:20.148Z,1.00
2018-02-06T15:35:48.110Z,1.00
2018-02-06T15:38:15.530Z,1.00
2018-02-06T15:40:42.867Z,1.00
2018-02-06T15:43:10.166Z,0.90
2018-02-06T15:45:38.185Z,1.00
2018-02-06T15:48:05.933Z,0.90
2018-02-06T15:50:34.442Z,0.90
2018-02-06T15:53:08.061Z,0.80
2018-02-06T15:55:36.358Z,0.80
2018-02-06T15:58:03.799Z,0.80
2018-02-06T16:00:37.118Z,0.80
2018-02-06T16:03:04.652Z,0.70
2018-02-06T16:05:32.490Z,0.70
2018-02-06T16:08:00.109Z,0.70
2018-02-06T16:10:27.694Z,0.80
2018-02-06T16:12:55.172Z,0.70
2018-02-06T16:15:23.448Z,0.70
2018-02-06T16:17:51.009Z,0.70
2018-02-06T16:20:18.808Z,0.70
2018-02-06T16:22:46.515Z,0.60
2018-02-06T16:25:14.047Z,0.60
2018-02-06T16:27:41.467Z,0.50
2018-02-06T16:30:08.869Z,0.50
2018-02-06T16:32:38.009Z,0.50
2018-02-06T16:37:37.773Z,0.50
2018-02-06T16:40:05.107Z,0.50
2018-02-06T16:42:32.814Z,0.50
2018-02-06T16:45:00.130Z,0.50
2018-02-06T16:47:27.539Z,0.50
2018-02-06T16:49:54.896Z,0.50
2018-02-06T16:52:22.229Z,0.50
2018-02-06T16:54:49.787Z,0.50
2018-02-06T16:57:17.126Z,0.50
2018-02-06T16:59:44.388Z,0.50
2018-02-06T17:02:17.589Z,0.50
2018-02-06T17:04:45.007Z,0.50
2018-02-06T17:07:12.393Z,0.50
2018-02-06T17:09:39.996Z,0.50
2018-02-06T17:12:07.577Z,0.50
2018-02-06T17:14:35.022Z,0.50
2018-02-06T17:17:02.367Z,0.50
2018-02-06T17:19:29.873Z,0.50
2018-02-06T17:21:57.296Z,0.50
2018-02-06T17:24:24.805Z,0.40
2018-02-06T17:26:54.422Z,0.40
2018-02-06T17:29:23.511Z,0.50
2018-02-06T17:31:51.326Z,0.50
2018-02-06T17:34:19.401Z,0.50
2018-02-06T17:36:47.350Z,0.40
2018-02-06T17:39:14.708Z,0.30
2018-02-06T17:41:42.491Z,0.30
2018-02-06T17:44:09.919Z,0.30
2018-02-06T17:46:37.289Z,0.20
2018-02-06T17:49:04.587Z,0.20
2018-02-06T17:51:31.850Z,0.20
2018-02-06T17:53:59.129Z,0.10
2018-02-06T17:56:28.993Z,0.20
2018-02-06T17:58:56.705Z,0.10
2018-02-06T18:01:24.308Z,0.10
2018-02-06T18:03:51.727Z,0.20
2018-02-06T18:06:19.518Z,0.10
2018-02-06T18:08:47.131Z,0.10
2018-02-06T18:11:14.954Z,0.10
2018-02-06T18:13:42.367Z,0.10
2018-02-06T18:16:10.812Z,0.10
2018-02-06T18:18:38.371Z,0.10
2018-02-06T18:21:05.911Z,0.10
2018-02-06T18:23:33.615Z,0.10
2018-02-06T18:26:00.976Z,0.00
2018-02-06T18:28:28.315Z,0.00
2018-02-06T18:30:55.675Z,-0.10
2018-02-06T18:33:23.073Z,-0.10
2018-02-06T18:35:50.490Z,-0.20
2018-02-06T18:38:17.886Z,-0.20
2018-02-06T18:40:45.448Z,-0.20
2018-02-06T18:43:13.606Z,-0.10
2018-02-06T18:45:41.107Z,-0.20
2018-02-06T18:48:08.531Z,-0.10
2018-02-06T18:50:36.127Z,-0.10
2018-02-06T18:53:03.590Z,-0.10
2018-02-06T18:55:31.011Z,-0.10
2018-02-06T18:57:58.370Z,-0.10
2018-02-06T19:00:26.795Z,-0.10
2018-02-06T19:02:54.172Z,-0.10
2018-02-06T19:05:21.567Z,-0.10
2018-02-06T19:07:49.007Z,0.00
2018-02-06T19:10:16.306Z,0.00
2018-02-06T19:12:44.126Z,0.00
2018-02-06T19:15:11.967Z,0.00
2018-02-06T19:17:39.566Z,0.00
2018-02-06T19:20:07.426Z,0.00
2018-02-06T19:22:34.886Z,0.00
2018-02-06T19:25:02.221Z,0.00
2018-02-06T19:27:29.607Z,0.00
2018-02-06T19:29:56.965Z,0.00
2018-02-06T19:32:24.447Z,0.00
2018-02-06T19:34:51.805Z,0.00
2018-02-06T19:37:19.567Z,0.00
2018-02-06T19:39:46.907Z,0.00
2018-02-06T19:42:14.295Z,0.00
2018-02-06T19:47:13.467Z,0.00
2018-02-06T19:49:40.947Z,0.00
2018-02-06T19:52:08.306Z,0.00
2018-02-06T19:54:35.686Z,0.00
2018-02-06T19:57:03.007Z,0.00
2018-02-06T19:59:30.326Z,0.00
2018-02-06T20:01:57.727Z,-0.10
2018-02-06T20:04:25.106Z,-0.10
2018-02-06T20:06:53.087Z,-0.10
2018-02-06T20:09:20.927Z,-0.20
2018-02-06T20:11:48.447Z,-0.20
2018-02-06T20:14:16.626Z,-0.30
2018-02-06T20:16:45.086Z,-0.30
2018-02-06T20:19:12.449Z,-0.40
2018-02-06T20:21:40.268Z,-0.40
2018-02-06T20:24:07.648Z,-0.40
2018-02-06T20:26:35.168Z,-0.30
2018-02-06T20:29:02.586Z,-0.30
2018-02-06T20:31:30.135Z,-0.30
2018-02-06T20:33:57.767Z,-0.30
2018-02-06T20:36:25.946Z,-0.30
2018-02-06T20:38:53.456Z,-0.40
2018-02-06T20:41:20.828Z,-0.30
2018-02-06T20:43:48.126Z,-0.30
2018-02-06T20:46:15.386Z,-0.30
2018-02-06T20:48:42.809Z,-0.40
2018-02-06T20:51:10.690Z,-0.40
2018-02-06T20:53:38.150Z,-0.40
2018-02-06T20:56:06.305Z,-0.30
2018-02-06T20:58:33.609Z,-0.30
2018-02-06T21:01:00.968Z,-0.40
2018-02-06T21:03:28.374Z,-0.40
2018-02-06T21:05:56.161Z,-0.40
2018-02-06T21:08:23.447Z,-0.40
2018-02-06T21:10:50.830Z,-0.40
2018-02-06T21:13:18.208Z,-0.40
2018-02-06T21:15:45.526Z,-0.40
2018-02-06T21:18:12.769Z,-0.30
2018-02-06T21:20:41.248Z,-0.30
2018-02-06T21:23:08.769Z,-0.40
2018-02-06T21:25:36.075Z,-0.30
2018-02-06T21:28:04.271Z,-0.40
2018-02-06T21:30:32.028Z,-0.40
2018-02-06T21:32:59.488Z,-0.40
2018-02-06T21:35:27.069Z,-0.50
2018-02-06T21:37:54.471Z,-0.50
2018-02-06T21:42:54.297Z,-0.50
2018-02-06T21:45:21.898Z,-0.50
2018-02-06T21:47:49.257Z,-0.40
2018-02-06T21:50:16.938Z,-0.40
2018-02-06T21:52:44.338Z,-0.30
2018-02-06T21:55:11.959Z,-0.30
2018-02-06T21:57:39.258Z,-0.30
2018-02-06T22:00:06.638Z,-0.40
2018-02-06T22:02:33.978Z,-0.30
2018-02-06T22:05:01.774Z,-0.40
2018-02-06T22:07:30.032Z,-0.40
2018-02-06T22:09:57.351Z,-0.50
2018-02-06T22:12:24.612Z,-0.50
2018-02-06T22:14:53.391Z,-0.40
2018-02-06T22:17:20.832Z,-0.40
2018-02-06T22:19:48.375Z,-0.40
2018-02-06T22:22:15.650Z,-0.40
2018-02-06T22:24:43.172Z,-0.30
2018-02-06T22:27:10.632Z,-0.30
2018-02-06T22:29:38.132Z,-0.30
2018-02-06T22:32:05.413Z,-0.40
2018-02-06T22:34:32.830Z,-0.30
2018-02-06T22:37:00.296Z,-0.40
2018-02-06T22:39:27.672Z,-0.40
2018-02-06T22:41:55.270Z,-0.40
2018-02-06T22:44:22.730Z,-0.30
2018-02-06T22:46:50.206Z,-0.40
2018-02-06T22:49:17.722Z,-0.40
2018-02-06T22:51:45.230Z,-0.40
2018-02-06T22:54:12.616Z,-0.40
2018-02-06T22:56:39.987Z,-0.40
2018-02-06T22:59:07.469Z,-0.40
2018-02-06T23:01:35.149Z,-0.40
2018-02-06T23:04:02.589Z,-0.40
2018-02-06T23:06:30.089Z,-0.40
2018-02-06T23:08:58.168Z,-0.40
2018-02-06T23:11:25.447Z,-0.30
2018-02-06T23:13:53.579Z,-0.40
2018-02-06T23:16:20.989Z,-0.30
2018-02-06T23:18:48.369Z,-0.30
2018-02-06T23:21:15.809Z,-0.30
2018-02-06T23:23:43.607Z,-0.30
2018-02-06T23:26:10.966Z,-0.40
2018-02-06T23:28:38.667Z,-0.40
2018-02-06T23:31:06.030Z,-0.40
2018-02-06T23:33:33.449Z,-0.40
2018-02-06T23:36:00.887Z,-0.40
2018-02-06T23:38:28.185Z,-0.40
2018-02-06T23:40:55.485Z,-0.50
2018-02-06T23:43:22.845Z,-0.50
2018-02-06T23:45:50.305Z,-0.50
2018-02-06T23:48:18.825Z,-0.50
2018-02-06T23:50:46.205Z,-0.50
2018-02-06T23:53:13.565Z,-0.50
2018-02-06T23:55:41.005Z,-0.40
2018-02-06T23:58:08.405Z,-0.40
